createdAt,value
2017-12-04T00:00:37.422Z,20.89
2017-12-04T00:01:37.424Z,20.88
2017-12-04T00:02:37.426Z,20.98
2017-12-04T00:03:37.429Z,20.91
2017-12-04T00:04:37.428Z,20.94
2017-12-04T00:05:37.431Z,20.91
2017-12-04T00:06:37.433Z,20.92
2017-12-04T00:07:37.435Z,20.92
2017-12-04T00:08:37.438Z,20.89
2017-12-04T00:09:37.439Z,20.97
2017-12-04T00:10:37.440Z,20.92
2017-12-04T00:11:37.445Z,20.97
2017-12-04T00:12:37.443Z,20.91
2017-12-04T00:13:37.445Z,20.89
2017-12-04T00:14:37.453Z,20.94
2017-12-04T00:15:37.449Z,20.94
2017-12-04T00:16:37.454Z,20.89
2017-12-04T00:17:37.452Z,20.89
2017-12-04T00:18:37.452Z,20.97
2017-12-04T00:19:37.461Z,20.94
2017-12-04T00:20:37.456Z,20.92
2017-12-04T00:21:37.458Z,20.91
2017-12-04T00:22:37.460Z,20.91
2017-12-04T00:23:37.462Z,20.92
2017-12-04T00:24:37.463Z,20.95
2017-12-04T00:25:37.465Z,20.94
2017-12-04T00:26:37.467Z,20.94
2017-12-04T00:27:37.470Z,20.94
2017-12-04T00:28:37.470Z,20.92
2017-12-04T00:29:37.472Z,20.94
2017-12-04T00:30:37.473Z,20.97
2017-12-04T00:31:37.476Z,20.95
2017-12-04T00:32:37.477Z,20.95
2017-12-04T00:33:37.479Z,20.89
2017-12-04T00:34:37.481Z,20.95
2017-12-04T00:35:37.488Z,20.95
2017-12-04T00:36:37.484Z,20.92
2017-12-04T00:37:37.485Z,20.92
2017-12-04T00:38:37.488Z,20.91
2017-12-04T00:39:37.491Z,20.92
2017-12-04T00:40:37.490Z,20.92
2017-12-04T00:41:37.492Z,20.84
2017-12-04T00:42:37.494Z,20.91
2017-12-04T00:43:37.496Z,20.84
2017-12-04T00:44:37.497Z,20.92
2017-12-04T00:45:37.499Z,20.91
2017-12-04T00:46:37.501Z,20.91
2017-12-04T00:47:37.502Z,20.92
2017-12-04T00:48:37.511Z,20.80
2017-12-04T00:49:37.506Z,20.89
2017-12-04T00:50:37.508Z,20.87
2017-12-04T00:51:37.510Z,20.80
2017-12-04T00:52:37.510Z,20.87
2017-12-04T00:53:37.512Z,20.82
2017-12-04T00:54:37.514Z,20.84
2017-12-04T00:55:37.517Z,20.87
2017-12-04T00:56:37.516Z,20.84
2017-12-04T00:57:37.519Z,20.87
2017-12-04T00:58:37.521Z,20.84
2017-12-04T00:59:37.524Z,20.85
2017-12-04T01:00:37.524Z,20.80
2017-12-04T01:01:37.525Z,20.87
2017-12-04T01:02:37.529Z,20.84
2017-12-04T01:03:37.529Z,20.88
2017-12-04T01:04:37.530Z,20.80
2017-12-04T01:05:37.532Z,20.82
2017-12-04T01:06:37.534Z,20.84
2017-12-04T01:07:37.536Z,20.82
2017-12-04T01:08:37.537Z,20.80
2017-12-04T01:09:37.539Z,20.84
2017-12-04T01:10:37.543Z,20.76
2017-12-04T01:11:37.543Z,20.77
2017-12-04T01:12:37.545Z,20.82
2017-12-04T01:13:37.546Z,20.84
2017-12-04T01:14:37.547Z,20.87
2017-12-04T01:15:37.550Z,20.84
2017-12-04T01:16:37.550Z,20.87
2017-12-04T01:17:37.552Z,20.79
2017-12-04T01:18:37.554Z,20.80
2017-12-04T01:19:37.557Z,20.82
2017-12-04T01:20:37.559Z,20.84
2017-12-04T01:21:37.559Z,20.82
2017-12-04T01:22:37.562Z,20.85
2017-12-04T01:23:37.562Z,20.82
2017-12-04T01:24:37.564Z,20.82
2017-12-04T01:25:37.566Z,20.84
2017-12-04T01:26:37.568Z,20.80
2017-12-04T01:27:37.570Z,20.85
2017-12-04T01:28:37.571Z,20.87
2017-12-04T01:29:37.574Z,20.84
2017-12-04T01:30:37.585Z,20.79
2017-12-04T01:31:37.577Z,20.84
2017-12-04T01:32:37.578Z,20.87
2017-12-04T01:33:37.582Z,20.76
2017-12-04T01:34:37.582Z,20.79
2017-12-04T01:35:37.583Z,20.87
2017-12-04T01:36:37.585Z,20.84
2017-12-04T01:37:37.586Z,20.87
2017-12-04T01:38:37.587Z,20.84
2017-12-04T01:39:37.593Z,20.85
2017-12-04T01:40:37.591Z,20.79
2017-12-04T01:41:37.597Z,20.79
2017-12-04T01:42:37.595Z,20.84
2017-12-04T01:43:37.603Z,20.73
2017-12-04T01:44:37.597Z,20.80
2017-12-04T01:45:37.599Z,20.79
2017-12-04T01:46:37.603Z,20.73
2017-12-04T01:47:37.603Z,20.82
2017-12-04T01:48:37.604Z,20.77
2017-12-04T01:49:37.606Z,20.79
2017-12-04T01:50:37.607Z,20.84
2017-12-04T01:51:37.610Z,20.84
2017-12-04T01:52:37.611Z,20.84
2017-12-04T01:53:37.613Z,20.88
2017-12-04T01:54:37.613Z,20.76
2017-12-04T01:55:37.616Z,20.82
2017-12-04T01:56:37.617Z,20.89
2017-12-04T01:57:37.618Z,20.84
2017-12-04T01:58:37.621Z,20.88
2017-12-04T01:59:37.625Z,20.87
2017-12-04T02:00:37.624Z,20.84
2017-12-04T02:01:37.626Z,20.76
2017-12-04T02:02:37.628Z,20.79
2017-12-04T02:03:37.630Z,20.76
2017-12-04T02:04:37.632Z,20.77
2017-12-04T02:05:37.637Z,20.77
2017-12-04T02:06:37.634Z,20.77
2017-12-04T02:07:37.640Z,20.84
2017-12-04T02:08:37.635Z,20.77
2017-12-04T02:09:37.639Z,20.84
2017-12-04T02:10:37.641Z,20.79
2017-12-04T02:11:37.643Z,20.73
2017-12-04T02:12:37.646Z,20.77
2017-12-04T02:13:37.646Z,20.77
2017-12-04T02:14:37.649Z,20.79
2017-12-04T02:15:37.650Z,20.74
2017-12-04T02:16:37.652Z,20.74
2017-12-04T02:17:37.655Z,20.67
2017-12-04T02:18:37.655Z,20.66
2017-12-04T02:19:37.659Z,20.74
2017-12-04T02:20:37.657Z,20.69
2017-12-04T02:21:37.659Z,20.77
2017-12-04T02:22:37.661Z,20.80
2017-12-04T02:23:37.662Z,20.76
2017-12-04T02:24:37.664Z,20.67
2017-12-04T02:25:37.666Z,20.67
2017-12-04T02:26:37.668Z,20.67
2017-12-04T02:27:37.670Z,20.72
2017-12-04T02:28:37.670Z,20.69
2017-12-04T02:29:37.672Z,20.76
2017-12-04T02:30:37.675Z,20.76
2017-12-04T02:31:37.698Z,20.73
2017-12-04T02:32:37.677Z,20.77
2017-12-04T02:33:37.679Z,20.76
2017-12-04T02:34:37.681Z,20.77
2017-12-04T02:35:37.692Z,20.70
2017-12-04T02:36:37.685Z,20.76
2017-12-04T02:37:37.685Z,20.74
2017-12-04T02:38:37.696Z,20.64
2017-12-04T02:39:37.690Z,20.77
2017-12-04T02:40:37.689Z,20.77
2017-12-04T02:41:37.694Z,20.77
2017-12-04T02:42:37.693Z,20.74
2017-12-04T02:43:37.696Z,20.76
2017-12-04T02:44:37.697Z,20.72
2017-12-04T02:45:37.699Z,20.69
2017-12-04T02:46:37.700Z,20.67
2017-12-04T02:47:37.702Z,20.62
2017-12-04T02:48:37.703Z,20.73
2017-12-04T02:49:37.707Z,20.72
2017-12-04T02:50:37.707Z,20.73
2017-12-04T02:51:37.710Z,20.67
2017-12-04T02:52:37.709Z,20.74
2017-12-04T02:53:37.714Z,20.77
2017-12-04T02:54:37.714Z,20.62
2017-12-04T02:55:37.716Z,20.74
2017-12-04T02:56:37.717Z,20.72
2017-12-04T02:57:37.717Z,20.70
2017-12-04T02:58:37.722Z,20.76
2017-12-04T02:59:37.721Z,20.67
2017-12-04T03:00:37.722Z,20.74
2017-12-04T03:01:37.724Z,20.70
2017-12-04T03:02:37.726Z,20.67
2017-12-04T03:03:37.727Z,20.70
2017-12-04T03:04:37.734Z,20.66
2017-12-04T03:05:37.736Z,20.67
2017-12-04T03:06:37.737Z,20.69
2017-12-04T03:07:37.738Z,20.69
2017-12-04T03:08:37.739Z,20.70
2017-12-04T03:09:37.739Z,20.73
2017-12-04T03:10:37.743Z,20.69
2017-12-04T03:11:37.742Z,20.69
2017-12-04T03:12:37.742Z,20.69
2017-12-04T03:13:37.743Z,20.66
2017-12-04T03:14:37.745Z,20.69
2017-12-04T03:15:37.748Z,20.70
2017-12-04T03:16:37.753Z,20.67
2017-12-04T03:17:37.749Z,20.69
2017-12-04T03:18:37.752Z,20.69
2017-12-04T03:19:37.753Z,20.66
2017-12-04T03:20:37.754Z,20.67
2017-12-04T03:21:37.756Z,20.74
2017-12-04T03:22:37.757Z,20.64
2017-12-04T03:23:37.759Z,20.70
2017-12-04T03:24:37.760Z,20.67
2017-12-04T03:25:37.763Z,20.73
2017-12-04T03:26:37.763Z,20.70
2017-12-04T03:27:37.766Z,20.70
2017-12-04T03:28:37.766Z,20.69
2017-12-04T03:29:37.769Z,20.69
2017-12-04T03:30:37.771Z,20.69
2017-12-04T03:31:37.773Z,20.64
2017-12-04T03:32:37.772Z,20.69
2017-12-04T03:33:37.774Z,20.70
2017-12-04T03:34:37.775Z,20.69
2017-12-04T03:35:37.779Z,20.69
2017-12-04T03:36:37.777Z,20.72
2017-12-04T03:37:37.780Z,20.69
2017-12-04T03:38:37.782Z,20.69
2017-12-04T03:39:37.785Z,20.69
2017-12-04T03:40:37.791Z,20.66
2017-12-04T03:41:37.798Z,20.69
2017-12-04T03:42:37.788Z,20.67
2017-12-04T03:43:37.790Z,20.69
2017-12-04T03:44:37.793Z,20.69
2017-12-04T03:45:37.793Z,20.69
2017-12-04T03:46:37.795Z,20.69
2017-12-04T03:47:37.797Z,20.69
2017-12-04T03:48:37.806Z,20.72
2017-12-04T03:49:37.801Z,20.64
2017-12-04T03:50:37.804Z,20.72
2017-12-04T03:51:37.810Z,20.66
2017-12-04T03:52:37.804Z,20.64
2017-12-04T03:53:37.806Z,20.69
2017-12-04T03:54:37.808Z,20.66
2017-12-04T03:55:37.810Z,20.69
2017-12-04T03:56:37.811Z,20.66
2017-12-04T03:57:37.813Z,20.67
2017-12-04T03:58:37.815Z,20.70
2017-12-04T03:59:37.817Z,20.66
2017-12-04T04:00:37.817Z,20.66
2017-12-04T04:01:37.819Z,20.67
2017-12-04T04:02:37.821Z,20.67
2017-12-04T04:03:37.823Z,20.69
2017-12-04T04:04:37.830Z,20.69
2017-12-04T04:05:37.832Z,20.69
2017-12-04T04:06:37.834Z,20.69
2017-12-04T04:07:37.838Z,20.67
2017-12-04T04:08:37.835Z,20.69
2017-12-04T04:09:37.836Z,20.70
2017-12-04T04:10:37.840Z,20.70
2017-12-04T04:11:37.836Z,20.67
2017-12-04T04:12:37.836Z,20.66
2017-12-04T04:13:37.838Z,20.67
2017-12-04T04:14:37.839Z,20.76
2017-12-04T04:15:37.842Z,20.64
2017-12-04T04:16:37.842Z,20.76
2017-12-04T04:17:37.844Z,20.66
2017-12-04T04:18:37.846Z,20.69
2017-12-04T04:19:37.848Z,20.76
2017-12-04T04:20:37.850Z,20.76
2017-12-04T04:21:37.850Z,20.72
2017-12-04T04:22:37.852Z,20.69
2017-12-04T04:23:37.854Z,20.69
2017-12-04T04:24:37.854Z,20.74
2017-12-04T04:25:37.856Z,20.77
2017-12-04T04:26:37.876Z,20.82
2017-12-04T04:27:37.861Z,20.79
2017-12-04T04:28:37.861Z,20.76
2017-12-04T04:29:37.863Z,20.76
2017-12-04T04:30:37.864Z,20.87
2017-12-04T04:31:37.866Z,20.87
2017-12-04T04:32:37.868Z,20.85
2017-12-04T04:33:37.869Z,20.87
2017-12-04T04:34:37.871Z,20.82
2017-12-04T04:35:37.874Z,20.85
2017-12-04T04:36:37.873Z,20.79
2017-12-04T04:37:37.875Z,20.84
2017-12-04T04:38:37.877Z,20.79
2017-12-04T04:39:37.879Z,20.82
2017-12-04T04:40:37.932Z,20.84
2017-12-04T04:41:37.882Z,20.82
2017-12-04T04:42:37.884Z,20.84
2017-12-04T04:43:37.888Z,20.80
2017-12-04T04:44:37.896Z,20.92
2017-12-04T04:45:37.888Z,20.95
2017-12-04T04:46:37.890Z,20.92
2017-12-04T04:47:37.892Z,20.92
2017-12-04T04:48:37.893Z,20.91
2017-12-04T04:49:37.897Z,20.85
2017-12-04T04:50:37.896Z,20.94
2017-12-04T04:51:37.898Z,20.89
2017-12-04T04:52:37.899Z,20.94
2017-12-04T04:53:37.901Z,20.94
2017-12-04T04:54:37.903Z,20.89
2017-12-04T04:55:37.904Z,20.88
2017-12-04T04:56:37.905Z,20.94
2017-12-04T04:57:37.907Z,20.91
2017-12-04T04:58:37.910Z,20.92
2017-12-04T04:59:37.916Z,20.94
2017-12-04T05:00:37.911Z,20.89
2017-12-04T05:01:37.914Z,20.95
2017-12-04T05:02:37.915Z,21.01
2017-12-04T05:03:37.918Z,20.94
2017-12-04T05:04:37.917Z,20.91
2017-12-04T05:05:37.920Z,20.92
2017-12-04T05:06:37.922Z,20.89
2017-12-04T05:07:37.923Z,20.91
2017-12-04T05:08:37.925Z,20.98
2017-12-04T05:09:37.926Z,20.94
2017-12-04T05:10:37.928Z,20.97
2017-12-04T05:11:37.933Z,20.94
2017-12-04T05:12:37.936Z,21.01
2017-12-04T05:13:37.933Z,20.99
2017-12-04T05:14:37.935Z,20.97
2017-12-04T05:15:37.937Z,20.97
2017-12-04T05:16:37.938Z,20.98
2017-12-04T05:17:37.942Z,20.94
2017-12-04T05:18:37.942Z,20.97
2017-12-04T05:19:37.943Z,20.99
2017-12-04T05:20:37.954Z,20.98
2017-12-04T05:21:37.953Z,20.99
2017-12-04T05:22:37.954Z,20.92
2017-12-04T05:23:37.955Z,20.97
2017-12-04T05:24:37.954Z,21.09
2017-12-04T05:25:37.956Z,21.01
2017-12-04T05:26:37.958Z,20.95
2017-12-04T05:27:37.960Z,20.95
2017-12-04T05:28:37.957Z,20.92
2017-12-04T05:29:37.964Z,20.97
2017-12-04T05:30:37.965Z,20.95
2017-12-04T05:31:37.976Z,20.98
2017-12-04T05:32:37.978Z,20.94
2017-12-04T05:33:37.979Z,20.98
2017-12-04T05:34:37.979Z,20.94
2017-12-04T05:35:37.982Z,20.95
2017-12-04T05:36:37.982Z,21.03
2017-12-04T05:37:37.979Z,21.06
2017-12-04T05:38:37.980Z,21.07
2017-12-04T05:39:37.982Z,21.10
2017-12-04T05:40:37.986Z,21.09
2017-12-04T05:41:37.984Z,21.04
2017-12-04T05:42:37.985Z,21.07
2017-12-04T05:43:37.987Z,21.03
2017-12-04T05:44:37.992Z,20.91
2017-12-04T05:45:37.993Z,20.99
2017-12-04T05:46:38.005Z,21.10
2017-12-04T05:47:37.996Z,21.09
2017-12-04T05:48:38.000Z,21.07
2017-12-04T05:49:37.999Z,20.97
2017-12-04T05:50:38.000Z,21.07
2017-12-04T05:51:38.000Z,21.06
2017-12-04T05:52:38.005Z,21.07
2017-12-04T05:53:38.005Z,21.12
2017-12-04T05:54:38.007Z,21.07
2017-12-04T05:55:38.010Z,21.06
2017-12-04T05:56:38.006Z,21.04
2017-12-04T05:57:38.012Z,21.10
2017-12-04T05:58:38.012Z,21.19
2017-12-04T05:59:38.024Z,21.07
2017-12-04T06:00:38.014Z,21.13
2017-12-04T06:01:38.016Z,21.13
2017-12-04T06:02:38.019Z,21.14
2017-12-04T06:03:38.020Z,21.16
2017-12-04T06:04:38.021Z,21.19
2017-12-04T06:05:38.022Z,21.14
2017-12-04T06:06:38.026Z,21.17
2017-12-04T06:07:38.033Z,21.14
2017-12-04T06:08:38.028Z,21.19
2017-12-04T06:09:38.032Z,21.16
2017-12-04T06:10:38.030Z,21.17
2017-12-04T06:11:38.032Z,21.14
2017-12-04T06:12:38.033Z,21.17
2017-12-04T06:13:38.036Z,21.16
2017-12-04T06:14:38.038Z,21.16
2017-12-04T06:15:38.039Z,21.19
2017-12-04T06:16:38.040Z,21.12
2017-12-04T06:17:38.046Z,21.14
2017-12-04T06:18:38.046Z,21.14
2017-12-04T06:19:38.051Z,21.19
2017-12-04T06:20:38.049Z,21.27
2017-12-04T06:21:38.049Z,21.31
2017-12-04T06:22:38.051Z,21.28
2017-12-04T06:23:38.055Z,21.32
2017-12-04T06:24:38.055Z,21.35
2017-12-04T06:25:38.056Z,21.37
2017-12-04T06:26:38.060Z,21.37
2017-12-04T06:27:38.060Z,21.42
2017-12-04T06:28:38.063Z,21.32
2017-12-04T06:29:38.080Z,21.37
2017-12-04T06:30:38.077Z,21.28
2017-12-04T06:31:38.074Z,21.32
2017-12-04T06:32:38.074Z,21.32
2017-12-04T06:33:38.125Z,21.35
2017-12-04T06:34:38.075Z,21.28
2017-12-04T06:35:38.078Z,21.35
2017-12-04T06:36:38.078Z,21.40
2017-12-04T06:37:38.079Z,21.35
2017-12-04T06:38:38.081Z,21.35
2017-12-04T06:39:38.083Z,21.37
2017-12-04T06:40:38.095Z,21.35
2017-12-04T06:41:38.085Z,21.38
2017-12-04T06:42:38.088Z,21.32
2017-12-04T06:43:38.095Z,21.43
2017-12-04T06:44:38.093Z,21.42
2017-12-04T06:45:38.094Z,21.35
2017-12-04T06:46:38.096Z,21.42
2017-12-04T06:47:38.098Z,21.37
2017-12-04T06:48:38.098Z,21.34
2017-12-04T06:49:38.115Z,21.40
2017-12-04T06:50:38.111Z,21.40
2017-12-04T06:51:38.106Z,21.32
2017-12-04T06:52:38.107Z,21.42
2017-12-04T06:53:38.111Z,21.42
2017-12-04T06:54:38.110Z,21.34
2017-12-04T06:55:38.113Z,21.35
2017-12-04T06:56:38.118Z,21.35
2017-12-04T06:57:38.117Z,21.38
2017-12-04T06:58:38.119Z,21.46
2017-12-04T06:59:38.120Z,21.40
2017-12-04T07:00:38.122Z,21.37
2017-12-04T07:01:38.124Z,21.40
2017-12-04T07:02:38.128Z,21.43
2017-12-04T07:03:38.131Z,21.38
2017-12-04T07:04:38.130Z,21.32
2017-12-04T07:05:38.133Z,21.43
2017-12-04T07:06:38.137Z,21.34
2017-12-04T07:07:38.137Z,21.37
2017-12-04T07:08:38.139Z,21.38
2017-12-04T07:09:38.146Z,21.52
2017-12-04T07:10:38.142Z,21.53
2017-12-04T07:11:38.145Z,21.47
2017-12-04T07:12:38.145Z,21.54
2017-12-04T07:13:38.149Z,21.58
2017-12-04T07:14:38.150Z,21.52
2017-12-04T07:15:38.152Z,21.61
2017-12-04T07:16:38.153Z,21.68
2017-12-04T07:17:38.165Z,21.54
2017-12-04T07:18:38.165Z,21.61
2017-12-04T07:19:38.166Z,21.64
2017-12-04T07:20:38.168Z,21.67
2017-12-04T07:21:38.169Z,21.67
2017-12-04T07:22:38.171Z,21.67
2017-12-04T07:23:38.170Z,21.67
2017-12-04T07:24:38.167Z,21.68
2017-12-04T07:25:38.172Z,21.68
2017-12-04T07:26:38.182Z,21.82
2017-12-04T07:27:38.177Z,21.72
2017-12-04T07:28:38.179Z,21.83
2017-12-04T07:29:38.181Z,21.90
2017-12-04T07:30:38.195Z,21.90
2017-12-04T07:31:38.186Z,21.91
2017-12-04T07:32:38.186Z,21.90
2017-12-04T07:33:38.191Z,21.98
2017-12-04T07:34:38.192Z,21.96
2017-12-04T07:35:38.193Z,21.98
2017-12-04T07:36:38.194Z,21.99
2017-12-04T07:37:38.196Z,22.05
2017-12-04T07:38:38.199Z,22.09
2017-12-04T07:39:38.201Z,22.00
2017-12-04T07:40:38.202Z,22.06
2017-12-04T07:41:38.206Z,22.09
2017-12-04T07:42:38.207Z,22.05
2017-12-04T07:43:38.209Z,22.09
2017-12-04T07:44:38.210Z,22.07
2017-12-04T07:45:38.211Z,22.12
2017-12-04T07:46:38.213Z,22.02
2017-12-04T07:47:38.214Z,22.06
2017-12-04T07:48:38.216Z,22.02
2017-12-04T07:49:38.221Z,22.18
2017-12-04T07:50:38.220Z,22.20
2017-12-04T07:51:38.222Z,22.00
2017-12-04T07:52:38.225Z,22.14
2017-12-04T07:53:38.226Z,22.18
2017-12-04T07:54:38.227Z,22.15
2017-12-04T07:55:38.230Z,22.09
2017-12-04T07:56:38.230Z,22.17
2017-12-04T07:57:38.233Z,22.15
2017-12-04T07:58:38.236Z,22.20
2017-12-04T07:59:38.236Z,22.20
2017-12-04T08:00:38.238Z,22.22
2017-12-04T08:01:38.239Z,22.22
2017-12-04T08:02:38.241Z,22.15
2017-12-04T08:03:38.256Z,22.22
2017-12-04T08:04:38.261Z,22.15
2017-12-04T08:05:38.254Z,22.25
2017-12-04T08:06:38.257Z,22.20
2017-12-04T08:07:38.256Z,22.20
2017-12-04T08:08:38.260Z,22.27
2017-12-04T08:09:38.259Z,22.21
2017-12-04T08:10:38.262Z,22.27
2017-12-04T08:11:38.258Z,22.30
2017-12-04T08:12:38.262Z,22.30
2017-12-04T08:13:38.266Z,22.27
2017-12-04T08:14:38.264Z,22.22
2017-12-04T08:15:38.266Z,22.33
2017-12-04T08:16:38.267Z,22.25
2017-12-04T08:17:38.270Z,22.17
2017-12-04T08:18:38.272Z,22.20
2017-12-04T08:19:38.274Z,22.21
2017-12-04T08:20:38.275Z,22.27
2017-12-04T08:21:38.278Z,22.21
2017-12-04T08:22:38.281Z,22.24
2017-12-04T08:23:38.281Z,22.24
2017-12-04T08:24:38.287Z,22.27
2017-12-04T08:25:38.283Z,22.27
2017-12-04T08:26:38.288Z,22.30
2017-12-04T08:27:38.294Z,22.27
2017-12-04T08:28:38.293Z,22.33
2017-12-04T08:29:38.291Z,22.33
2017-12-04T08:30:38.295Z,22.27
2017-12-04T08:31:38.298Z,22.25
2017-12-04T08:32:38.300Z,22.27
2017-12-04T08:33:38.303Z,22.27
2017-12-04T08:34:38.304Z,22.25
2017-12-04T08:35:38.306Z,22.21
2017-12-04T08:36:38.306Z,22.27
2017-12-04T08:37:38.309Z,22.33
2017-12-04T08:38:38.330Z,22.30
2017-12-04T08:39:38.314Z,22.24
2017-12-04T08:40:38.315Z,22.30
2017-12-04T08:41:38.318Z,22.33
2017-12-04T08:42:38.318Z,22.31
2017-12-04T08:43:38.322Z,22.33
2017-12-04T08:44:38.323Z,22.37
2017-12-04T08:45:38.326Z,22.37
2017-12-04T08:46:38.330Z,22.39
2017-12-04T08:47:38.331Z,22.37
2017-12-04T08:48:38.332Z,22.37
2017-12-04T08:49:38.335Z,22.43
2017-12-04T08:50:38.337Z,22.31
2017-12-04T08:51:38.340Z,22.42
2017-12-04T08:52:38.341Z,22.36
2017-12-04T08:53:38.344Z,22.43
2017-12-04T08:54:38.343Z,22.37
2017-12-04T08:55:38.350Z,22.39
2017-12-04T08:56:38.378Z,22.43
2017-12-04T08:57:38.354Z,22.37
2017-12-04T08:58:38.366Z,22.39
2017-12-04T08:59:38.361Z,22.35
2017-12-04T09:00:38.371Z,22.39
2017-12-04T09:01:38.362Z,22.35
2017-12-04T09:02:38.366Z,22.33
2017-12-04T09:03:38.367Z,22.39
2017-12-04T09:04:39.768Z,22.40
2017-12-04T09:05:38.368Z,22.36
2017-12-04T09:06:38.379Z,22.36
2017-12-04T09:07:38.380Z,22.37
2017-12-04T09:08:38.380Z,22.31
2017-12-04T09:09:38.378Z,22.33
2017-12-04T09:10:38.392Z,22.33
2017-12-04T09:11:38.408Z,22.36
2017-12-04T09:12:38.385Z,22.35
2017-12-04T09:13:38.392Z,22.31
2017-12-04T09:14:38.394Z,22.24
2017-12-04T09:15:38.400Z,22.22
2017-12-04T09:16:38.399Z,22.28
2017-12-04T09:17:38.400Z,22.35
2017-12-04T09:18:38.404Z,22.33
2017-12-04T09:19:38.403Z,22.33
2017-12-04T09:20:38.405Z,22.36
2017-12-04T09:21:38.409Z,22.37
2017-12-04T09:22:38.412Z,22.43
2017-12-04T09:23:38.413Z,22.46
2017-12-04T09:24:38.416Z,22.35
2017-12-04T09:25:38.414Z,22.49
2017-12-04T09:26:38.418Z,22.45
2017-12-04T09:27:38.420Z,22.49
2017-12-04T09:28:38.423Z,22.43
2017-12-04T09:29:38.425Z,22.51
2017-12-04T09:30:38.426Z,22.49
2017-12-04T09:31:38.428Z,22.43
2017-12-04T09:32:38.430Z,22.52
2017-12-04T09:33:38.432Z,22.47
2017-12-04T09:34:38.439Z,22.49
2017-12-04T09:35:38.440Z,22.43
2017-12-04T09:36:38.442Z,22.45
2017-12-04T09:37:38.442Z,22.46
2017-12-04T09:38:38.449Z,22.47
2017-12-04T09:39:38.449Z,22.49
2017-12-04T09:40:38.446Z,22.43
2017-12-04T09:41:38.451Z,22.42
2017-12-04T09:42:38.453Z,22.47
2017-12-04T09:43:38.454Z,22.52
2017-12-04T09:44:38.460Z,22.47
2017-12-04T09:45:38.460Z,22.35
2017-12-04T09:46:38.460Z,22.42
2017-12-04T09:47:38.465Z,22.43
2017-12-04T09:48:38.467Z,22.35
2017-12-04T09:49:38.467Z,22.42
2017-12-04T09:50:38.469Z,22.39
2017-12-04T09:51:38.471Z,22.39
2017-12-04T09:52:38.476Z,22.40
2017-12-04T09:53:38.489Z,22.35
2017-12-04T09:54:38.477Z,22.27
2017-12-04T09:55:38.479Z,22.28
2017-12-04T09:56:38.480Z,22.31
2017-12-04T09:57:38.487Z,22.28
2017-12-04T09:58:38.488Z,22.28
2017-12-04T09:59:38.489Z,22.24
2017-12-04T10:00:38.491Z,22.28
2017-12-04T10:01:38.491Z,22.35
2017-12-04T10:02:38.495Z,22.25
2017-12-04T10:03:38.497Z,22.31
2017-12-04T10:04:38.498Z,22.21
2017-12-04T10:05:38.500Z,22.18
2017-12-04T10:06:38.515Z,22.28
2017-12-04T10:07:38.512Z,22.30
2017-12-04T10:08:38.509Z,22.35
2017-12-04T10:09:38.511Z,22.36
2017-12-04T10:10:38.512Z,22.46
2017-12-04T10:11:38.513Z,22.49
2017-12-04T10:12:38.517Z,22.47
2017-12-04T10:13:38.517Z,22.51
2017-12-04T10:14:38.524Z,22.54
2017-12-04T10:15:38.524Z,22.54
2017-12-04T10:16:38.524Z,22.51
2017-12-04T10:17:38.531Z,22.54
2017-12-04T10:18:38.535Z,22.45
2017-12-04T10:19:38.536Z,22.52
2017-12-04T10:20:38.538Z,22.54
2017-12-04T10:21:38.538Z,22.51
2017-12-04T10:22:38.539Z,22.54
2017-12-04T10:23:38.543Z,22.55
2017-12-04T10:24:38.543Z,22.55
2017-12-04T10:25:38.546Z,22.55
2017-12-04T10:26:38.548Z,22.52
2017-12-04T10:27:38.550Z,22.55
2017-12-04T10:28:38.553Z,22.58
2017-12-04T10:29:38.554Z,22.57
2017-12-04T10:30:38.563Z,22.58
2017-12-04T10:31:38.560Z,22.54
2017-12-04T10:32:38.561Z,22.62
2017-12-04T10:33:38.565Z,22.54
2017-12-04T10:34:38.569Z,22.60
2017-12-04T10:35:38.569Z,22.64
2017-12-04T10:36:38.569Z,22.58
2017-12-04T10:37:38.573Z,22.54
2017-12-04T10:38:38.573Z,22.62
2017-12-04T10:39:38.578Z,22.58
2017-12-04T10:40:38.578Z,22.64
2017-12-04T10:41:38.580Z,22.62
2017-12-04T10:42:38.586Z,22.62
2017-12-04T10:43:38.587Z,22.62
2017-12-04T10:44:38.590Z,22.67
2017-12-04T10:45:38.589Z,22.72
2017-12-04T10:46:38.593Z,22.60
2017-12-04T10:47:38.602Z,22.62
2017-12-04T10:48:38.597Z,22.61
2017-12-04T10:49:38.598Z,22.55
2017-12-04T10:50:38.599Z,22.51
2017-12-04T10:51:38.616Z,22.55
2017-12-04T10:52:38.604Z,22.65
2017-12-04T10:53:38.605Z,22.65
2017-12-04T10:54:38.611Z,22.65
2017-12-04T10:55:38.613Z,22.75
2017-12-04T10:56:38.618Z,22.75
2017-12-04T10:57:38.616Z,22.65
2017-12-04T10:58:38.620Z,22.75
2017-12-04T10:59:38.621Z,22.64
2017-12-04T11:00:38.628Z,22.73
2017-12-04T11:01:38.629Z,22.73
2017-12-04T11:02:38.629Z,22.65
2017-12-04T11:03:38.630Z,22.64
2017-12-04T11:04:38.632Z,22.72
2017-12-04T11:05:38.636Z,22.72
2017-12-04T11:06:38.638Z,22.58
2017-12-04T11:07:38.641Z,22.61
2017-12-04T11:08:38.650Z,22.65
2017-12-04T11:09:38.642Z,22.73
2017-12-04T11:10:38.647Z,22.72
2017-12-04T11:11:38.651Z,22.67
2017-12-04T11:12:38.652Z,22.73
2017-12-04T11:13:38.655Z,22.76
2017-12-04T11:14:38.657Z,22.77
2017-12-04T11:15:38.660Z,22.76
2017-12-04T11:16:38.664Z,22.77
2017-12-04T11:17:38.663Z,22.79
2017-12-04T11:18:38.667Z,22.82
2017-12-04T11:19:38.670Z,22.85
2017-12-04T11:20:38.672Z,22.85
2017-12-04T11:21:38.675Z,22.79
2017-12-04T11:22:38.678Z,22.88
2017-12-04T11:23:38.680Z,22.79
2017-12-04T11:24:38.682Z,22.88
2017-12-04T11:25:38.683Z,22.86
2017-12-04T11:26:38.686Z,22.86
2017-12-04T11:27:38.690Z,22.90
2017-12-04T11:28:38.691Z,22.88
2017-12-04T11:29:38.696Z,22.92
2017-12-04T11:30:38.699Z,22.86
2017-12-04T11:31:38.700Z,22.86
2017-12-04T11:32:38.705Z,22.88
2017-12-04T11:33:38.708Z,22.73
2017-12-04T11:34:38.712Z,22.83
2017-12-04T11:35:38.711Z,22.79
2017-12-04T11:36:38.712Z,22.83
2017-12-04T11:37:38.715Z,22.77
2017-12-04T11:38:38.718Z,22.76
2017-12-04T11:39:38.725Z,22.73
2017-12-04T11:40:38.722Z,22.67
2017-12-04T11:41:38.725Z,22.73
2017-12-04T11:42:38.729Z,22.72
2017-12-04T11:43:38.734Z,22.68
2017-12-04T11:44:38.733Z,22.70
2017-12-04T11:45:38.735Z,22.73
2017-12-04T11:46:38.737Z,22.75
2017-12-04T11:47:38.743Z,22.70
2017-12-04T11:48:38.742Z,22.72
2017-12-04T11:49:38.745Z,22.73
2017-12-04T11:50:38.746Z,22.67
2017-12-04T11:51:38.750Z,22.62
2017-12-04T11:52:38.751Z,22.64
2017-12-04T11:53:38.755Z,22.62
2017-12-04T11:54:38.757Z,22.61
2017-12-04T11:55:38.762Z,22.64
2017-12-04T11:56:38.759Z,22.60
2017-12-04T11:57:38.765Z,22.58
2017-12-04T11:58:38.767Z,22.55
2017-12-04T11:59:38.769Z,22.60
2017-12-04T12:00:38.771Z,22.52
2017-12-04T12:01:38.775Z,22.46
2017-12-04T12:02:38.776Z,22.57
2017-12-04T12:03:38.779Z,22.54
2017-12-04T12:04:38.780Z,22.54
2017-12-04T12:05:38.782Z,22.57
2017-12-04T12:06:38.787Z,22.54
2017-12-04T12:07:38.786Z,22.49
2017-12-04T12:08:38.790Z,22.54
2017-12-04T12:09:38.794Z,22.51
2017-12-04T12:10:38.797Z,22.43
2017-12-04T12:11:38.797Z,22.49
2017-12-04T12:12:38.800Z,22.52
2017-12-04T12:13:38.801Z,22.49
2017-12-04T12:14:38.805Z,22.54
2017-12-04T12:15:38.817Z,22.51
2017-12-04T12:16:38.809Z,22.46
2017-12-04T12:17:38.812Z,22.46
2017-12-04T12:18:38.814Z,22.45
2017-12-04T12:19:38.817Z,22.46
2017-12-04T12:20:38.860Z,22.49
2017-12-04T12:21:38.823Z,22.47
2017-12-04T12:22:38.827Z,22.36
2017-12-04T12:23:38.826Z,22.39
2017-12-04T12:24:38.825Z,22.43
2017-12-04T12:25:38.830Z,22.47
2017-12-04T12:26:38.833Z,22.33
2017-12-04T12:27:38.835Z,22.42
2017-12-04T12:28:38.837Z,22.31
2017-12-04T12:29:38.845Z,22.36
2017-12-04T12:30:38.843Z,22.42
2017-12-04T12:31:38.843Z,22.46
2017-12-04T12:32:38.862Z,22.40
2017-12-04T12:33:38.846Z,22.39
2017-12-04T12:34:38.869Z,22.40
2017-12-04T12:35:38.854Z,22.37
2017-12-04T12:36:38.855Z,22.39
2017-12-04T12:37:38.858Z,22.42
2017-12-04T12:38:38.862Z,22.39
2017-12-04T12:39:38.863Z,22.39
2017-12-04T12:40:38.865Z,22.40
2017-12-04T12:41:38.881Z,22.39
2017-12-04T12:42:38.869Z,22.40
2017-12-04T12:43:38.871Z,22.37
2017-12-04T12:44:38.873Z,22.40
2017-12-04T12:45:38.878Z,22.36
2017-12-04T12:46:38.878Z,22.39
2017-12-04T12:47:38.883Z,22.36
2017-12-04T12:48:38.882Z,22.43
2017-12-04T12:49:38.886Z,22.37
2017-12-04T12:50:38.887Z,22.40
2017-12-04T12:51:38.889Z,22.27
2017-12-04T12:52:38.893Z,22.31